createdAt,value
2023-03-01T00:01:22.228Z,3.80
2023-03-01T00:03:50.393Z,3.90
2023-03-01T00:06:18.466Z,4.20
2023-03-01T00:08:46.587Z,4.17
2023-03-01T00:11:16.688Z,3.80
2023-03-01T00:13:45.925Z,4.40
2023-03-01T00:16:16.839Z,4.27
2023-03-01T00:18:46.446Z,3.63
2023-03-01T00:21:14.800Z,3.90
2023-03-01T00:23:42.764Z,3.87
2023-03-01T00:26:13.260Z,3.97
2023-03-01T00:28:41.310Z,4.73
2023-03-01T00:31:12.262Z,3.90
2023-03-01T00:33:40.281Z,3.60
2023-03-01T00:36:10.909Z,4.43
2023-03-01T00:38:39.948Z,3.90
2023-03-01T00:41:09.070Z,4.07
2023-03-01T00:43:38.330Z,4.23
2023-03-01T00:46:08.105Z,3.90
2023-03-01T00:48:36.232Z,3.87
2023-03-01T00:51:10.773Z,3.97
2023-03-01T00:53:39.417Z,3.70
2023-03-01T00:56:09.213Z,3.77
2023-03-01T00:58:38.062Z,3.90
2023-03-01T01:01:17.922Z,3.85
2023-03-01T01:04:00.408Z,3.35
2023-03-01T01:06:32.375Z,3.53
2023-03-01T01:09:01.457Z,3.30
2023-03-01T01:11:31.419Z,3.67
2023-03-01T01:14:00.014Z,3.47
2023-03-01T01:16:30.626Z,3.60
2023-03-01T01:18:59.147Z,4.10
2023-03-01T01:21:29.511Z,3.40
2023-03-01T01:23:57.748Z,3.73
2023-03-01T01:26:27.931Z,3.83
2023-03-01T01:28:56.534Z,3.77
2023-03-01T01:31:26.148Z,3.27
2023-03-01T01:33:54.401Z,4.07
2023-03-01T01:36:22.718Z,3.67
2023-03-01T01:38:52.069Z,3.80
2023-03-01T01:41:20.680Z,4.30
2023-03-01T01:43:50.439Z,4.07
2023-03-01T01:46:28.002Z,3.80
2023-03-01T01:49:00.687Z,3.73
2023-03-01T01:51:39.035Z,3.73
2023-03-01T01:54:13.836Z,3.50
2023-03-01T01:56:44.942Z,3.87
2023-03-01T01:59:14.028Z,3.57
2023-03-01T02:01:41.925Z,4.23
2023-03-01T02:04:09.880Z,3.80
2023-03-01T02:06:41.561Z,3.93
2023-03-01T02:09:15.881Z,3.70
2023-03-01T02:11:46.189Z,3.70
2023-03-01T02:14:14.301Z,3.72
2023-03-01T02:16:43.220Z,4.22
2023-03-01T02:19:19.444Z,3.93
2023-03-01T02:21:56.142Z,4.03
2023-03-01T02:24:33.853Z,3.63
2023-03-01T02:27:03.272Z,3.83
2023-03-01T02:29:32.624Z,3.50
2023-03-01T02:32:03.496Z,3.70
2023-03-01T02:34:33.414Z,3.60
2023-03-01T02:37:05.522Z,3.87
2023-03-01T02:39:42.809Z,3.40
2023-03-01T02:42:14.893Z,3.57
2023-03-01T02:44:44.112Z,4.00
2023-03-01T02:47:12.138Z,3.60
2023-03-01T02:49:40.042Z,3.97
2023-03-01T02:52:41.075Z,4.40
2023-03-01T02:55:11.970Z,4.20
2023-03-01T02:57:42.186Z,3.80
2023-03-01T03:00:20.096Z,4.57
2023-03-01T03:02:48.952Z,3.67
2023-03-01T03:05:19.434Z,3.97
2023-03-01T03:07:48.988Z,3.80
2023-03-01T03:10:20.216Z,4.47
2023-03-01T03:12:52.293Z,4.43
2023-03-01T03:15:23.293Z,4.43
2023-03-01T03:17:52.275Z,3.67
2023-03-01T03:20:21.986Z,3.83
2023-03-01T03:22:51.774Z,3.90
2023-03-01T03:25:22.364Z,4.37
2023-03-01T03:27:57.691Z,4.32
2023-03-01T03:30:29.175Z,4.13
2023-03-01T03:33:00.329Z,4.37
2023-03-01T03:35:32.033Z,3.70
2023-03-01T03:38:03.899Z,4.10
2023-03-01T03:40:34.887Z,3.75
2023-03-01T03:43:02.808Z,4.10
2023-03-01T03:45:34.283Z,3.70
2023-03-01T03:48:03.050Z,3.70
2023-03-01T03:50:31.258Z,3.85
2023-03-01T03:52:59.245Z,4.40
2023-03-01T03:55:31.415Z,4.53
2023-03-01T03:58:07.502Z,4.20
2023-03-01T04:00:39.202Z,4.45
2023-03-01T04:03:07.874Z,4.20
2023-03-01T04:05:36.244Z,3.70
2023-03-01T04:08:07.914Z,4.50
2023-03-01T04:10:38.382Z,4.30
2023-03-01T04:13:06.854Z,4.50
2023-03-01T04:15:36.627Z,4.03
2023-03-01T04:18:08.200Z,4.32
2023-03-01T04:20:37.708Z,4.18
2023-03-01T04:23:14.281Z,4.50
2023-03-01T04:25:43.919Z,4.13
2023-03-01T04:28:12.316Z,4.07
2023-03-01T04:30:42.489Z,4.22
2023-03-01T04:33:12.134Z,3.97
2023-03-01T04:35:41.380Z,3.67
2023-03-01T04:38:09.787Z,4.38
2023-03-01T04:40:39.531Z,4.68
2023-03-01T04:43:07.980Z,4.35
2023-03-01T04:45:36.654Z,4.45
2023-03-01T04:48:08.051Z,4.85
2023-03-01T04:50:36.789Z,4.65
2023-03-01T04:53:04.789Z,4.50
2023-03-01T04:55:32.772Z,4.45
2023-03-01T04:58:00.746Z,4.68
2023-03-01T05:00:28.718Z,4.50
2023-03-01T05:02:58.422Z,4.85
2023-03-01T05:05:30.309Z,4.70
2023-03-01T05:07:59.971Z,4.55
2023-03-01T05:10:30.073Z,4.28
2023-03-01T05:12:59.279Z,4.45
2023-03-01T05:15:28.757Z,4.60
2023-03-01T05:17:59.526Z,4.40
2023-03-01T05:20:29.750Z,4.63
2023-03-01T05:22:59.806Z,4.95
2023-03-01T05:25:28.000Z,4.90
2023-03-01T05:27:55.913Z,5.53
2023-03-01T05:30:26.479Z,4.88
2023-03-01T05:32:56.706Z,4.65
2023-03-01T05:35:25.543Z,4.95
2023-03-01T05:37:55.059Z,5.53
2023-03-01T05:40:25.175Z,4.88
2023-03-01T05:42:55.686Z,5.45
2023-03-01T05:45:24.716Z,4.60
2023-03-01T05:47:53.091Z,5.47
2023-03-01T05:50:23.001Z,4.63
2023-03-01T05:52:52.668Z,5.63
2023-03-01T05:55:23.286Z,5.53
2023-03-01T05:57:52.075Z,4.85
2023-03-01T06:00:23.108Z,5.47
2023-03-01T06:02:51.213Z,5.22
2023-03-01T06:05:19.583Z,5.07
2023-03-01T06:07:47.633Z,5.13
2023-03-01T06:10:16.145Z,5.90
2023-03-01T06:12:45.770Z,5.35
2023-03-01T06:15:15.137Z,5.28
2023-03-01T06:17:45.672Z,5.57
2023-03-01T06:20:16.544Z,5.32
2023-03-01T06:22:46.571Z,5.07
2023-03-01T06:25:15.822Z,5.45
2023-03-01T06:27:45.257Z,5.38
2023-03-01T06:30:15.631Z,5.75
2023-03-01T06:32:43.912Z,5.22
2023-03-01T06:35:13.093Z,5.50
2023-03-01T06:37:41.045Z,5.72
2023-03-01T06:40:12.411Z,6.10
2023-03-01T06:42:42.913Z,5.93
2023-03-01T06:45:13.705Z,5.45
2023-03-01T06:47:41.784Z,5.95
2023-03-01T06:50:11.285Z,6.03
2023-03-01T06:52:39.487Z,5.43
2023-03-01T06:55:08.674Z,5.85
2023-03-01T06:57:36.723Z,5.55
2023-03-01T07:00:05.593Z,5.68
2023-03-01T07:02:37.211Z,6.38
2023-03-01T07:05:05.931Z,6.13
2023-03-01T07:07:33.887Z,6.13
2023-03-01T07:10:03.172Z,5.82
2023-03-01T07:12:31.212Z,6.50
2023-03-01T07:14:59.106Z,5.50
2023-03-01T07:17:27.168Z,6.28
2023-03-01T07:19:56.640Z,6.18
2023-03-01T07:22:24.473Z,6.05
2023-03-01T07:24:52.292Z,6.55
2023-03-01T07:27:20.187Z,6.22
2023-03-01T07:29:47.986Z,6.82
2023-03-01T07:32:17.294Z,6.90
2023-03-01T07:34:45.581Z,7.20
2023-03-01T07:37:14.966Z,6.45
2023-03-01T07:39:43.105Z,6.57
2023-03-01T07:42:11.241Z,7.53
2023-03-01T07:44:39.144Z,7.32
2023-03-01T07:47:07.419Z,7.07
2023-03-01T07:49:35.373Z,7.13
2023-03-01T07:52:03.244Z,7.20
2023-03-01T07:54:32.414Z,6.82
2023-03-01T07:57:00.732Z,6.97
2023-03-01T07:59:30.139Z,7.03
2023-03-01T08:01:58.285Z,6.23
2023-03-01T08:04:27.667Z,6.47
2023-03-01T08:06:57.058Z,7.53
2023-03-01T08:09:24.979Z,7.50
2023-03-01T08:11:55.466Z,7.20
2023-03-01T08:14:23.416Z,6.77
2023-03-01T08:16:51.962Z,7.67
2023-03-01T08:19:20.286Z,6.83
2023-03-01T08:21:48.224Z,7.75
2023-03-01T08:24:16.136Z,7.40
2023-03-01T08:26:44.181Z,7.33
2023-03-01T08:29:13.474Z,6.90
2023-03-01T08:31:42.398Z,7.63
2023-03-01T08:34:12.573Z,7.40
2023-03-01T08:36:42.116Z,7.33
2023-03-01T08:39:12.061Z,7.73
2023-03-01T08:41:40.279Z,7.53
2023-03-01T08:44:09.333Z,7.10
2023-03-01T08:46:41.271Z,7.43
2023-03-01T08:49:10.234Z,7.50
2023-03-01T08:51:38.657Z,6.80
2023-03-01T08:54:08.038Z,8.27
2023-03-01T08:56:36.236Z,8.50
2023-03-01T08:59:04.505Z,7.20
2023-03-01T09:01:32.526Z,8.43
2023-03-01T09:04:01.962Z,7.77
2023-03-01T09:06:33.218Z,7.50
2023-03-01T09:09:01.612Z,8.03
2023-03-01T09:11:30.593Z,8.63
2023-03-01T09:13:58.742Z,7.67
2023-03-01T09:16:26.725Z,7.53
2023-03-01T09:18:56.043Z,7.70
2023-03-01T09:21:39.723Z,8.40
2023-03-01T09:24:09.083Z,7.30
2023-03-01T09:26:36.967Z,7.67
2023-03-01T09:29:05.054Z,7.63
2023-03-01T09:31:32.954Z,6.73
2023-03-01T09:34:00.789Z,7.60
2023-03-01T09:36:30.431Z,7.13
2023-03-01T09:39:00.844Z,6.47
2023-03-01T09:41:45.718Z,7.30
2023-03-01T09:44:23.598Z,7.20
2023-03-01T09:46:53.068Z,6.67
2023-03-01T09:49:23.792Z,6.93
2023-03-01T09:52:00.111Z,7.37
2023-03-01T09:54:29.104Z,5.97
2023-03-01T09:57:08.992Z,6.50
2023-03-01T09:59:50.131Z,6.83
2023-03-01T10:02:34.340Z,6.50
2023-03-01T10:05:16.555Z,6.13
2023-03-01T10:07:54.195Z,6.20
2023-03-01T10:10:29.317Z,6.13
2023-03-01T10:12:58.898Z,5.93
2023-03-01T10:15:36.023Z,6.10
2023-03-01T10:18:08.617Z,6.30
2023-03-01T10:20:47.405Z,6.13
2023-03-01T10:23:17.171Z,6.53
2023-03-01T10:25:54.079Z,5.70
2023-03-01T10:28:28.586Z,6.37
2023-03-01T10:30:56.718Z,6.20
2023-03-01T10:33:28.515Z,5.90
2023-03-01T10:35:56.653Z,6.40
2023-03-01T10:38:26.578Z,6.90
2023-03-01T10:40:58.945Z,5.87
2023-03-01T10:43:28.867Z,6.10
2023-03-01T10:45:56.814Z,7.10
2023-03-01T10:48:27.262Z,6.43
2023-03-01T10:51:08.895Z,5.53
2023-03-01T10:53:39.961Z,6.20
2023-03-01T10:56:10.622Z,6.13
2023-03-01T10:58:40.054Z,6.73
2023-03-01T11:01:26.258Z,6.00
2023-03-01T11:04:12.882Z,6.03
2023-03-01T11:06:42.530Z,6.00
2023-03-01T11:09:21.610Z,6.20
2023-03-01T11:11:54.826Z,5.27
2023-03-01T11:14:27.230Z,5.60
2023-03-01T11:17:04.472Z,6.37
2023-03-01T11:19:33.604Z,5.80
2023-03-01T11:22:04.658Z,5.93
2023-03-01T11:24:43.422Z,5.70
2023-03-01T11:27:19.167Z,6.03
2023-03-01T11:29:52.074Z,6.07
2023-03-01T11:32:23.210Z,5.83
2023-03-01T11:34:56.641Z,5.67
2023-03-01T11:37:32.394Z,5.70
2023-03-01T11:40:18.304Z,5.93
2023-03-01T11:42:56.155Z,5.50
2023-03-01T11:45:26.925Z,5.57
2023-03-01T11:48:15.042Z,5.90
2023-03-01T11:50:48.081Z,5.63
2023-03-01T11:53:41.310Z,5.87
2023-03-01T11:56:25.120Z,5.63
2023-03-01T11:59:19.228Z,5.67
2023-03-01T12:02:04.817Z,5.53
2023-03-01T12:05:11.110Z,5.50
2023-03-01T12:07:47.498Z,5.60
2023-03-01T12:10:27.697Z,6.53
2023-03-01T12:13:19.793Z,5.80
2023-03-01T12:16:14.091Z,6.23
2023-03-01T12:19:25.041Z,6.47
2023-03-01T12:22:19.153Z,5.87
2023-03-01T12:25:06.870Z,6.30
2023-03-01T12:27:53.712Z,6.00
2023-03-01T12:30:32.255Z,5.33
2023-03-01T12:33:14.680Z,6.10
2023-03-01T12:35:55.798Z,6.33
2023-03-01T12:38:38.728Z,6.27
2023-03-01T12:41:25.760Z,5.67
2023-03-01T12:44:03.402Z,5.50
2023-03-01T12:46:46.487Z,5.57
2023-03-01T12:49:18.104Z,5.73
2023-03-01T12:51:53.746Z,5.97
2023-03-01T12:54:29.488Z,5.73
2023-03-01T12:56:59.195Z,5.50
2023-03-01T12:59:35.340Z,5.60
2023-03-01T13:02:15.901Z,5.47
2023-03-01T13:05:01.829Z,5.40
2023-03-01T13:07:36.389Z,5.13
2023-03-01T13:10:23.779Z,5.63
2023-03-01T13:13:04.579Z,5.33
2023-03-01T13:15:35.743Z,5.43
2023-03-01T13:18:26.532Z,5.40
2023-03-01T13:20:58.231Z,5.50
2023-03-01T13:23:28.608Z,5.73
2023-03-01T13:26:06.100Z,5.10
2023-03-01T13:29:02.175Z,5.93
2023-03-01T13:32:01.105Z,4.63
2023-03-01T13:34:48.144Z,5.03
2023-03-01T13:37:33.904Z,4.93
2023-03-01T13:40:28.405Z,5.73
2023-03-01T13:43:05.401Z,5.60
2023-03-01T13:45:40.945Z,5.07
2023-03-01T13:48:13.602Z,4.90
2023-03-01T13:50:52.368Z,5.30
2023-03-01T13:53:23.432Z,5.17
2023-03-01T13:55:55.705Z,5.20
2023-03-01T13:58:26.171Z,5.50
2023-03-01T14:00:59.118Z,4.80
2023-03-01T14:03:27.896Z,5.97
2023-03-01T14:06:14.505Z,5.00
2023-03-01T14:08:44.797Z,5.13
2023-03-01T14:11:52.771Z,5.57
2023-03-01T14:14:50.296Z,4.90
2023-03-01T14:17:43.258Z,5.13
2023-03-01T14:20:16.431Z,5.40
2023-03-01T14:22:47.918Z,5.60
2023-03-01T14:25:25.035Z,5.33
2023-03-01T14:27:59.894Z,5.37
2023-03-01T14:30:32.204Z,5.47
2023-03-01T14:33:01.738Z,5.03
2023-03-01T14:35:32.397Z,4.73
2023-03-01T14:38:01.876Z,4.60
2023-03-01T14:40:31.878Z,4.57
2023-03-01T14:43:02.819Z,4.37
2023-03-01T14:45:32.454Z,5.33
2023-03-01T14:48:02.999Z,3.83
2023-03-01T14:50:33.422Z,4.27
2023-03-01T14:53:05.587Z,4.93
2023-03-01T14:55:35.998Z,4.90
2023-03-01T14:58:05.632Z,5.07
2023-03-01T15:00:36.203Z,5.53
2023-03-01T15:03:14.210Z,5.10
2023-03-01T15:05:45.126Z,4.93
2023-03-01T15:08:22.240Z,5.03
2023-03-01T15:11:03.003Z,4.93
2023-03-01T15:13:33.865Z,5.10
2023-03-01T15:16:08.844Z,4.90
2023-03-01T15:18:37.502Z,5.03
2023-03-01T15:21:10.397Z,4.90
2023-03-01T15:23:42.110Z,5.33
2023-03-01T15:26:25.748Z,5.07
2023-03-01T15:28:59.057Z,5.00
2023-03-01T15:31:29.471Z,4.97
2023-03-01T15:34:11.305Z,4.50
2023-03-01T15:36:43.732Z,5.17
2023-03-01T15:39:39.138Z,4.77
2023-03-01T15:42:09.757Z,5.23
2023-03-01T15:44:44.128Z,5.40
2023-03-01T15:47:27.864Z,5.10
2023-03-01T15:49:56.868Z,4.57
2023-03-01T15:52:30.200Z,5.03
2023-03-01T15:55:01.968Z,4.57
2023-03-01T15:57:30.277Z,4.93
2023-03-01T15:59:58.137Z,4.40
2023-03-01T16:02:26.664Z,5.00
2023-03-01T16:04:57.371Z,4.73
2023-03-01T16:07:27.830Z,5.20
2023-03-01T16:09:55.841Z,5.17
2023-03-01T16:12:26.184Z,4.50
2023-03-01T16:14:54.979Z,4.53
2023-03-01T16:17:23.043Z,4.90
2023-03-01T16:19:51.053Z,4.80
2023-03-01T16:22:21.937Z,4.63
2023-03-01T16:24:49.920Z,4.63
2023-03-01T16:27:18.272Z,4.60
2023-03-01T16:29:47.798Z,4.73
2023-03-01T16:32:15.740Z,4.80
2023-03-01T16:34:43.918Z,4.90
2023-03-01T16:37:11.904Z,4.53
2023-03-01T16:39:40.658Z,4.73
2023-03-01T16:42:08.631Z,4.70
2023-03-01T16:44:36.543Z,4.93
2023-03-01T16:47:06.015Z,4.90
2023-03-01T16:49:33.936Z,4.07
2023-03-01T16:52:02.136Z,4.83
2023-03-01T16:54:30.121Z,4.37
2023-03-01T16:56:58.872Z,4.70
2023-03-01T16:59:27.158Z,4.70
2023-03-01T17:01:55.055Z,4.77
2023-03-01T17:04:24.289Z,4.53
2023-03-01T17:06:52.324Z,4.87
2023-03-01T17:09:22.935Z,4.40
2023-03-01T17:11:51.100Z,4.63
2023-03-01T17:14:19.226Z,5.03
2023-03-01T17:16:47.230Z,4.20
2023-03-01T17:19:18.487Z,4.90
2023-03-01T17:21:47.936Z,4.97
2023-03-01T17:24:16.068Z,4.80
2023-03-01T17:26:44.060Z,4.43
2023-03-01T17:29:13.808Z,4.10
2023-03-01T17:31:41.848Z,4.60
2023-03-01T17:34:09.830Z,4.40
2023-03-01T17:36:44.706Z,4.10
2023-03-01T17:39:14.561Z,4.33
2023-03-01T17:41:42.515Z,3.93
2023-03-01T17:44:10.584Z,4.90
2023-03-01T17:46:38.659Z,5.10
2023-03-01T17:49:06.537Z,4.17
2023-03-01T17:51:34.511Z,4.20
2023-03-01T17:54:02.445Z,4.40
2023-03-01T17:56:32.226Z,4.17
2023-03-01T17:59:02.335Z,4.50
2023-03-01T18:01:30.548Z,4.23
2023-03-01T18:03:58.688Z,4.33
2023-03-01T18:06:28.570Z,4.63
2023-03-01T18:08:57.169Z,4.83
2023-03-01T18:11:26.367Z,4.13
2023-03-01T18:13:56.717Z,4.33
2023-03-01T18:16:24.804Z,4.87
2023-03-01T18:18:55.071Z,4.80
2023-03-01T18:21:23.579Z,4.30
2023-03-01T18:23:51.575Z,4.00
2023-03-01T18:26:22.160Z,4.33
2023-03-01T18:28:51.792Z,4.20
2023-03-01T18:31:23.246Z,4.77
2023-03-01T18:33:54.614Z,4.97
2023-03-01T18:36:24.571Z,4.30
2023-03-01T18:38:56.042Z,4.87
2023-03-01T18:41:24.822Z,4.80
2023-03-01T18:43:52.855Z,4.60
2023-03-01T18:46:22.729Z,4.50
2023-03-01T18:48:50.692Z,5.37
2023-03-01T18:51:20.251Z,4.63
2023-03-01T18:53:48.602Z,4.97
2023-03-01T18:56:16.762Z,5.60
2023-03-01T18:58:45.003Z,5.70
2023-03-01T19:01:17.588Z,5.33
2023-03-01T19:03:46.968Z,5.33
2023-03-01T19:06:15.421Z,4.93
2023-03-01T19:08:44.445Z,5.33
2023-03-01T19:11:13.891Z,5.20
2023-03-01T19:13:42.596Z,5.13
2023-03-01T19:16:12.099Z,5.10
2023-03-01T19:18:42.049Z,4.80
2023-03-01T19:21:12.601Z,5.67
2023-03-01T19:23:40.626Z,5.20
2023-03-01T19:26:10.360Z,5.63
2023-03-01T19:28:39.771Z,5.07
2023-03-01T19:31:09.955Z,5.70
2023-03-01T19:33:39.843Z,5.77
2023-03-01T19:36:09.446Z,5.13
2023-03-01T19:38:39.502Z,5.13
2023-03-01T19:41:08.710Z,5.67
2023-03-01T19:43:36.696Z,4.93
2023-03-01T19:46:04.995Z,5.20
2023-03-01T19:48:32.972Z,5.20
2023-03-01T19:51:00.937Z,5.23
2023-03-01T19:53:31.011Z,4.87
2023-03-01T19:56:01.285Z,5.30
2023-03-01T19:58:29.902Z,5.27
2023-03-01T20:01:00.632Z,5.60
2023-03-01T20:03:29.453Z,4.93
2023-03-01T20:05:58.375Z,5.03
2023-03-01T20:08:27.193Z,5.27
2023-03-01T20:11:02.054Z,4.63
2023-03-01T20:13:31.262Z,5.20
2023-03-01T20:15:59.231Z,5.20
2023-03-01T20:18:27.661Z,5.33
2023-03-01T20:20:55.845Z,5.17
2023-03-01T20:23:23.745Z,5.33
2023-03-01T20:25:51.960Z,5.47
2023-03-01T20:28:20.820Z,5.43
2023-03-01T20:30:50.089Z,5.20
2023-03-01T20:33:17.956Z,5.33
2023-03-01T20:35:46.082Z,4.77
2023-03-01T20:38:13.998Z,5.90
2023-03-01T20:40:41.874Z,5.23
2023-03-01T20:43:09.695Z,4.60
2023-03-01T20:45:39.113Z,4.30
2023-03-01T20:48:08.545Z,4.67
2023-03-01T20:50:36.481Z,4.60
2023-03-01T20:53:04.423Z,5.27
2023-03-01T20:55:32.374Z,5.07
2023-03-01T20:58:00.274Z,5.30
2023-03-01T21:00:28.252Z,4.83
2023-03-01T21:02:56.374Z,5.03
2023-03-01T21:05:25.603Z,4.93
2023-03-01T21:07:53.551Z,5.10
2023-03-01T21:10:21.514Z,4.77
2023-03-01T21:12:49.483Z,4.37
2023-03-01T21:15:28.391Z,4.67
2023-03-01T21:17:57.154Z,5.20
2023-03-01T21:20:26.356Z,4.60
2023-03-01T21:22:54.262Z,4.97
2023-03-01T21:25:22.229Z,4.47
2023-03-01T21:27:50.069Z,4.57
2023-03-01T21:30:18.278Z,4.77
2023-03-01T21:32:46.298Z,5.17
2023-03-01T21:35:14.308Z,5.00
2023-03-01T21:37:43.542Z,4.67
2023-03-01T21:40:12.648Z,4.60
2023-03-01T21:42:40.685Z,5.33
2023-03-01T21:45:09.268Z,4.43
2023-03-01T21:47:38.238Z,5.50
2023-03-01T21:50:08.566Z,4.93
2023-03-01T21:52:36.468Z,5.33
2023-03-01T21:55:07.128Z,4.00
2023-03-01T21:57:35.040Z,5.20
2023-03-01T22:00:04.573Z,4.93
2023-03-01T22:02:32.868Z,4.20
2023-03-01T22:05:00.887Z,5.10
2023-03-01T22:07:28.808Z,5.00
2023-03-01T22:09:56.934Z,5.00
2023-03-01T22:12:26.246Z,4.80
2023-03-01T22:14:54.116Z,5.17
2023-03-01T22:17:22.073Z,4.83
2023-03-01T22:19:49.996Z,4.73
2023-03-01T22:22:17.894Z,4.97
2023-03-01T22:24:45.738Z,5.00
2023-03-01T22:27:13.664Z,5.17
2023-03-01T22:29:42.966Z,5.00
2023-03-01T22:32:11.049Z,4.83
2023-03-01T22:34:38.984Z,4.87
2023-03-01T22:37:07.150Z,5.00
2023-03-01T22:39:35.168Z,5.30
2023-03-01T22:42:03.136Z,4.87
2023-03-01T22:44:31.028Z,4.93
2023-03-01T22:47:00.561Z,5.30
2023-03-01T22:49:28.448Z,5.00
2023-03-01T22:51:56.415Z,4.63
2023-03-01T22:54:24.230Z,5.20
2023-03-01T22:56:52.184Z,4.80
2023-03-01T22:59:22.959Z,5.60
2023-03-01T23:01:53.373Z,5.13
2023-03-01T23:04:24.160Z,5.10
2023-03-01T23:06:54.042Z,4.57
2023-03-01T23:09:25.402Z,4.80
2023-03-01T23:11:55.604Z,4.90
2023-03-01T23:14:23.806Z,5.00
2023-03-01T23:16:52.942Z,4.47
2023-03-01T23:19:22.570Z,4.77
2023-03-01T23:21:50.973Z,4.60
2023-03-01T23:24:21.316Z,4.13
2023-03-01T23:26:53.260Z,4.47
2023-03-01T23:29:21.435Z,4.63
2023-03-01T23:31:49.635Z,4.73
2023-03-01T23:34:17.627Z,4.67
2023-03-01T23:36:46.901Z,4.90
2023-03-01T23:39:15.640Z,4.57
2023-03-01T23:41:43.634Z,4.77
2023-03-01T23:44:16.004Z,4.97
2023-03-01T23:46:44.514Z,4.43
2023-03-01T23:49:12.795Z,5.07
2023-03-01T23:51:43.814Z,4.80
2023-03-01T23:54:14.236Z,4.37
2023-03-01T23:56:44.269Z,4.30
2023-03-01T23:59:15.318Z,4.40
